createdAt,value
2023-04-03T00:00:52.843Z,5.07
2023-04-03T00:03:20.754Z,5.06
2023-04-03T00:05:48.003Z,5.04
2023-04-03T00:08:15.684Z,5.06
2023-04-03T00:10:42.374Z,5.05
2023-04-03T00:13:10.117Z,5.03
2023-04-03T00:15:37.474Z,5.04
2023-04-03T00:18:04.749Z,5.04
2023-04-03T00:20:31.919Z,5.03
2023-04-03T00:22:58.783Z,5.03
2023-04-03T00:25:25.616Z,5.03
2023-04-03T00:27:52.561Z,5.04
2023-04-03T00:30:21.621Z,5.06
2023-04-03T00:32:52.258Z,5.02
2023-04-03T00:35:20.769Z,4.96
2023-04-03T00:37:47.915Z,4.94
2023-04-03T00:40:16.332Z,4.92
2023-04-03T00:42:44.921Z,4.91
2023-04-03T00:45:11.662Z,4.94
2023-04-03T00:47:41.244Z,4.96
2023-04-03T00:50:08.726Z,4.95
2023-04-03T00:52:36.360Z,4.96
2023-04-03T00:55:07.020Z,4.95
2023-04-03T00:57:34.587Z,4.94
2023-04-03T01:00:08.295Z,4.92
2023-04-03T01:02:35.087Z,4.92
2023-04-03T01:05:01.936Z,4.93
2023-04-03T01:07:34.958Z,4.92
2023-04-03T01:10:04.449Z,4.91
2023-04-03T01:12:34.687Z,4.92
2023-04-03T01:15:27.362Z,4.96
2023-04-03T01:17:59.489Z,4.97
2023-04-03T01:20:32.232Z,4.94
2023-04-03T01:23:12.015Z,4.90
2023-04-03T01:25:45.486Z,4.86
2023-04-03T01:28:25.499Z,4.84
2023-04-03T01:31:13.716Z,4.85
2023-04-03T01:33:40.508Z,4.86
2023-04-03T01:36:08.946Z,4.86
2023-04-03T01:38:36.184Z,4.82
2023-04-03T01:41:02.936Z,4.78
2023-04-03T01:43:29.640Z,4.74
2023-04-03T01:45:57.139Z,4.72
2023-04-03T01:48:23.893Z,4.71
2023-04-03T01:50:50.668Z,4.69
2023-04-03T01:53:17.395Z,4.68
2023-04-03T01:55:44.606Z,4.69
2023-04-03T01:58:11.378Z,4.66
2023-04-03T02:00:38.501Z,4.67
2023-04-03T02:03:05.463Z,4.66
2023-04-03T02:05:32.285Z,4.64
2023-04-03T02:07:59.403Z,4.61
2023-04-03T02:10:26.998Z,4.60
2023-04-03T02:12:53.884Z,4.58
2023-04-03T02:15:20.616Z,4.56
2023-04-03T02:17:47.490Z,4.56
2023-04-03T02:20:14.507Z,4.54
2023-04-03T02:22:41.987Z,4.58
2023-04-03T02:25:09.087Z,4.57
2023-04-03T02:27:36.555Z,4.57
2023-04-03T02:30:04.515Z,4.55
2023-04-03T02:32:31.342Z,4.51
2023-04-03T02:34:58.433Z,4.49
2023-04-03T02:37:25.652Z,4.45
2023-04-03T02:39:52.346Z,4.43
2023-04-03T02:42:19.094Z,4.43
2023-04-03T02:44:45.961Z,4.41
2023-04-03T02:47:12.811Z,4.39
2023-04-03T02:49:39.559Z,4.36
2023-04-03T02:52:06.267Z,4.35
2023-04-03T02:54:33.209Z,4.34
2023-04-03T02:56:59.986Z,4.35
2023-04-03T02:59:27.060Z,4.32
2023-04-03T03:01:54.012Z,4.29
2023-04-03T03:04:20.850Z,4.26
2023-04-03T03:06:47.949Z,4.22
2023-04-03T03:09:15.762Z,4.20
2023-04-03T03:11:42.495Z,4.18
2023-04-03T03:14:09.364Z,4.15
2023-04-03T03:16:36.163Z,4.15
2023-04-03T03:19:03.170Z,4.13
2023-04-03T03:21:29.934Z,4.10
2023-04-03T03:23:56.703Z,4.09
2023-04-03T03:26:23.405Z,4.08
2023-04-03T03:28:50.528Z,4.07
2023-04-03T03:31:17.384Z,4.07
2023-04-03T03:33:44.379Z,4.06
2023-04-03T03:36:11.909Z,4.04
2023-04-03T03:38:38.689Z,4.01
2023-04-03T03:41:05.632Z,4.01
2023-04-03T03:43:32.352Z,4.01
2023-04-03T03:45:59.087Z,4.01
2023-04-03T03:48:25.929Z,4.00
2023-04-03T03:50:52.693Z,4.01
2023-04-03T03:53:20.371Z,4.01
2023-04-03T03:55:47.242Z,4.01
2023-04-03T03:58:16.572Z,4.01
2023-04-03T04:00:43.399Z,3.98
2023-04-03T04:03:10.423Z,4.00
2023-04-03T04:05:37.350Z,4.02
2023-04-03T04:08:04.251Z,4.03
2023-04-03T04:10:31.286Z,4.04
2023-04-03T04:12:58.752Z,4.08
2023-04-03T04:15:26.781Z,4.12
2023-04-03T04:17:54.489Z,4.15
2023-04-03T04:20:21.780Z,4.14
2023-04-03T04:22:48.523Z,4.15
2023-04-03T04:25:15.603Z,4.17
2023-04-03T04:27:42.466Z,4.21
2023-04-03T04:30:10.068Z,4.27
2023-04-03T04:32:36.865Z,4.29
2023-04-03T04:35:05.097Z,4.34
2023-04-03T04:37:31.946Z,4.37
2023-04-03T04:39:58.728Z,4.43
2023-04-03T04:42:25.815Z,4.49
2023-04-03T04:44:52.579Z,4.54
2023-04-03T04:47:19.337Z,4.63
2023-04-03T04:49:48.509Z,4.71
2023-04-03T04:52:15.885Z,4.75
2023-04-03T04:54:42.800Z,4.80
2023-04-03T04:57:09.767Z,4.89
2023-04-03T04:59:36.458Z,4.96
2023-04-03T05:02:03.348Z,5.01
2023-04-03T05:04:30.559Z,5.10
2023-04-03T05:06:57.331Z,5.17
2023-04-03T05:09:24.168Z,5.25
2023-04-03T05:11:51.079Z,5.35
2023-04-03T05:14:18.265Z,5.49
2023-04-03T05:16:45.194Z,5.60
2023-04-03T05:19:11.976Z,5.74
2023-04-03T05:21:38.666Z,5.85
2023-04-03T05:24:06.231Z,5.97
2023-04-03T05:26:33.123Z,6.04
2023-04-03T05:28:59.866Z,6.14
2023-04-03T05:31:27.118Z,6.30
2023-04-03T05:33:54.275Z,6.40
2023-04-03T05:36:21.294Z,6.50
2023-04-03T05:38:48.310Z,6.56
2023-04-03T05:41:16.204Z,6.62
2023-04-03T05:43:43.213Z,6.67
2023-04-03T05:46:13.314Z,6.77
2023-04-03T05:48:40.176Z,6.84
2023-04-03T05:51:13.783Z,6.87
2023-04-03T05:53:41.959Z,6.89
2023-04-03T05:56:08.870Z,6.92
2023-04-03T05:58:35.896Z,6.99
2023-04-03T06:01:02.687Z,7.06
2023-04-03T06:03:29.705Z,7.13
2023-04-03T06:05:56.588Z,7.21
2023-04-03T06:08:24.803Z,7.35
2023-04-03T06:10:52.527Z,7.45
2023-04-03T06:13:19.287Z,7.51
2023-04-03T06:15:46.171Z,7.60
2023-04-03T06:18:12.941Z,7.66
2023-04-03T06:20:39.878Z,7.73
2023-04-03T06:23:08.485Z,7.78
2023-04-03T06:25:36.122Z,7.91
2023-04-03T06:28:03.130Z,8.05
2023-04-03T06:30:29.977Z,8.20
2023-04-03T06:32:57.714Z,8.33
2023-04-03T06:35:24.956Z,8.43
2023-04-03T06:37:51.737Z,8.53
2023-04-03T06:40:23.335Z,8.57
2023-04-03T06:42:51.486Z,8.56
2023-04-03T06:45:18.462Z,8.56
2023-04-03T06:47:46.451Z,8.61
2023-04-03T06:50:15.178Z,8.62
2023-04-03T06:52:42.408Z,8.60
2023-04-03T06:55:10.427Z,8.64
2023-04-03T06:57:37.945Z,8.68
2023-04-03T07:00:07.022Z,8.75
2023-04-03T07:02:34.206Z,8.82
2023-04-03T07:05:01.061Z,8.88
2023-04-03T07:07:27.850Z,8.93
2023-04-03T07:09:54.846Z,8.95
2023-04-03T07:12:21.955Z,8.95
2023-04-03T07:14:48.686Z,9.00
2023-04-03T07:17:15.575Z,9.08
2023-04-03T07:19:42.411Z,9.16
2023-04-03T07:22:09.278Z,9.23
2023-04-03T07:24:36.266Z,9.33
2023-04-03T07:27:03.928Z,9.43
2023-04-03T07:29:31.262Z,9.51
2023-04-03T07:31:58.243Z,9.60
2023-04-03T07:34:25.099Z,9.67
2023-04-03T07:36:51.837Z,9.73
2023-04-03T07:39:18.669Z,9.83
2023-04-03T07:41:45.631Z,9.90
2023-04-03T07:44:12.457Z,9.95
2023-04-03T07:46:40.042Z,9.99
2023-04-03T07:49:06.864Z,10.04
2023-04-03T07:51:33.661Z,10.08
2023-04-03T07:54:00.603Z,10.22
2023-04-03T07:56:27.476Z,10.36
2023-04-03T07:58:54.756Z,10.47
2023-04-03T08:01:21.872Z,10.59
2023-04-03T08:03:48.958Z,10.67
2023-04-03T08:06:18.582Z,10.70
2023-04-03T08:08:46.956Z,10.80
2023-04-03T08:11:13.734Z,10.88
2023-04-03T08:13:42.629Z,10.89
2023-04-03T08:16:19.222Z,10.86
2023-04-03T08:18:46.433Z,10.99
2023-04-03T08:21:13.621Z,11.16
2023-04-03T08:23:42.678Z,11.30
2023-04-03T08:26:15.229Z,11.34
2023-04-03T08:28:42.394Z,11.44
2023-04-03T08:31:13.142Z,11.55
2023-04-03T08:33:40.767Z,11.56
2023-04-03T08:36:16.960Z,11.66
2023-04-03T08:38:43.812Z,11.73
2023-04-03T08:41:32.238Z,11.78
2023-04-03T08:44:33.240Z,11.68
2023-04-03T08:47:21.624Z,11.65
2023-04-03T08:49:54.711Z,11.65
2023-04-03T08:52:28.854Z,11.69
2023-04-03T08:54:58.813Z,11.70
2023-04-03T08:57:35.913Z,11.70
2023-04-03T09:00:08.983Z,11.68
2023-04-03T09:02:44.301Z,11.64
2023-04-03T09:05:22.517Z,11.67
2023-04-03T09:07:59.511Z,11.74
2023-04-03T09:10:32.550Z,11.75
2023-04-03T09:13:14.453Z,11.79
2023-04-03T09:15:42.114Z,11.85
2023-04-03T09:18:16.577Z,11.95
2023-04-03T09:21:04.397Z,12.06
2023-04-03T09:23:56.565Z,12.19
2023-04-03T09:26:29.741Z,12.36
2023-04-03T09:29:02.043Z,12.48
2023-04-03T09:31:38.002Z,12.56
2023-04-03T09:34:29.283Z,12.57
2023-04-03T09:36:59.165Z,12.57
2023-04-03T09:39:29.451Z,12.60
2023-04-03T09:41:58.630Z,12.62
2023-04-03T09:44:28.591Z,12.70
2023-04-03T09:46:55.514Z,12.78
2023-04-03T09:49:22.595Z,12.88
2023-04-03T09:51:50.238Z,13.02
2023-04-03T09:54:40.990Z,13.09
2023-04-03T09:57:15.923Z,13.12
2023-04-03T10:00:06.017Z,13.02
2023-04-03T10:02:37.364Z,13.01
2023-04-03T10:05:25.440Z,12.98
2023-04-03T10:08:01.668Z,12.96
2023-04-03T10:10:30.697Z,12.87
2023-04-03T10:13:21.307Z,12.81
2023-04-03T10:16:03.517Z,12.82
2023-04-03T10:18:39.831Z,12.75
2023-04-03T10:21:26.606Z,12.80
2023-04-03T10:24:06.205Z,12.88
2023-04-03T10:26:39.186Z,13.03
2023-04-03T10:29:24.116Z,13.08
2023-04-03T10:32:32.693Z,13.06
2023-04-03T10:35:35.703Z,13.04
2023-04-03T10:38:20.964Z,12.99
2023-04-03T10:41:23.075Z,12.93
2023-04-03T10:44:11.239Z,12.95
2023-04-03T10:46:51.131Z,12.99
2023-04-03T10:49:30.063Z,13.09
2023-04-03T10:52:23.237Z,13.20
2023-04-03T10:54:59.076Z,13.32
2023-04-03T10:57:28.572Z,13.29
2023-04-03T11:00:00.595Z,13.29
2023-04-03T11:02:43.483Z,13.26
2023-04-03T11:05:27.671Z,13.23
2023-04-03T11:07:56.505Z,13.20
2023-04-03T11:10:26.418Z,13.05
2023-04-03T11:13:18.199Z,12.97
2023-04-03T11:15:48.304Z,12.94
2023-04-03T11:18:20.502Z,12.98
2023-04-03T11:21:09.340Z,12.99
2023-04-03T11:23:49.496Z,12.94
2023-04-03T11:26:22.077Z,12.92
2023-04-03T11:28:57.408Z,12.90
2023-04-03T11:31:33.223Z,12.86
2023-04-03T11:34:06.727Z,12.80
2023-04-03T11:36:42.491Z,12.76
2023-04-03T11:39:21.786Z,12.72
2023-04-03T11:41:49.105Z,12.72
2023-04-03T11:44:34.689Z,12.67
2023-04-03T11:47:03.426Z,12.61
2023-04-03T11:49:55.391Z,12.58
2023-04-03T11:52:43.167Z,12.57
2023-04-03T11:55:23.000Z,12.55
2023-04-03T11:57:58.718Z,12.40
2023-04-03T12:00:53.470Z,12.35
2023-04-03T12:03:26.760Z,12.38
2023-04-03T12:06:05.583Z,12.40
2023-04-03T12:08:35.453Z,12.36
2023-04-03T12:11:14.729Z,12.36
2023-04-03T12:13:50.896Z,12.41
2023-04-03T12:16:31.895Z,12.40
2023-04-03T12:19:22.260Z,12.30
2023-04-03T12:21:59.342Z,12.22
2023-04-03T12:24:31.236Z,12.20
2023-04-03T12:26:58.142Z,12.17
2023-04-03T12:29:34.155Z,12.09
2023-04-03T12:32:31.535Z,12.01
2023-04-03T12:35:17.002Z,11.92
2023-04-03T12:38:33.993Z,11.83
2023-04-03T12:41:38.523Z,11.72
2023-04-03T12:44:28.602Z,11.59
2023-04-03T12:46:55.635Z,11.57
2023-04-03T12:49:43.026Z,11.51
2023-04-03T12:52:57.554Z,11.39
2023-04-03T12:55:27.617Z,11.35
2023-04-03T12:57:54.557Z,11.30
2023-04-03T13:00:33.898Z,11.21
2023-04-03T13:03:06.062Z,11.15
2023-04-03T13:05:36.742Z,11.08
2023-04-03T13:08:13.743Z,10.97
2023-04-03T13:11:16.352Z,10.83
2023-04-03T13:13:59.443Z,10.76
2023-04-03T13:16:27.355Z,10.68
2023-04-03T13:18:55.842Z,10.62
2023-04-03T13:21:40.833Z,10.54
2023-04-03T13:24:15.506Z,10.52
2023-04-03T13:26:43.896Z,10.44
2023-04-03T13:29:31.841Z,10.36
2023-04-03T13:32:01.060Z,10.30
2023-04-03T13:34:41.717Z,10.23
2023-04-03T13:37:21.455Z,10.18
2023-04-03T13:40:15.992Z,10.10
2023-04-03T13:42:43.615Z,10.04
2023-04-03T13:45:11.585Z,9.90
2023-04-03T13:47:44.855Z,9.91
2023-04-03T13:50:26.383Z,9.86
2023-04-03T13:53:11.329Z,9.85
2023-04-03T13:55:57.794Z,9.83
2023-04-03T13:58:29.463Z,9.84
2023-04-03T14:01:08.404Z,9.87
2023-04-03T14:03:59.863Z,9.85
2023-04-03T14:06:26.994Z,9.85
2023-04-03T14:08:54.356Z,9.87
2023-04-03T14:11:25.453Z,9.92
2023-04-03T14:13:52.351Z,9.96
2023-04-03T14:16:22.016Z,10.02
2023-04-03T14:18:51.025Z,9.99
2023-04-03T14:21:18.721Z,9.85
2023-04-03T14:23:46.526Z,9.85
2023-04-03T14:26:17.396Z,9.88
2023-04-03T14:28:46.270Z,9.91
2023-04-03T14:31:14.991Z,9.89
2023-04-03T14:33:41.951Z,9.87
2023-04-03T14:36:17.876Z,9.84
2023-04-03T14:38:46.384Z,9.79
2023-04-03T14:41:19.119Z,9.76
2023-04-03T14:43:47.750Z,9.71
2023-04-03T14:46:23.279Z,9.68
2023-04-03T14:48:51.224Z,9.65
2023-04-03T14:51:18.001Z,9.62
2023-04-03T14:53:45.994Z,9.60
2023-04-03T14:56:19.798Z,9.57
2023-04-03T14:58:50.428Z,9.52
2023-04-03T15:01:18.495Z,9.50
2023-04-03T15:03:46.080Z,9.46
2023-04-03T15:06:14.960Z,9.42
2023-04-03T15:08:43.417Z,9.39
2023-04-03T15:11:11.598Z,9.35
2023-04-03T15:13:39.281Z,9.31
2023-04-03T15:16:13.951Z,9.30
2023-04-03T15:18:40.865Z,9.27
2023-04-03T15:21:07.658Z,9.26
2023-04-03T15:23:34.426Z,9.25
2023-04-03T15:26:01.281Z,9.20
2023-04-03T15:28:35.058Z,9.17
2023-04-03T15:31:01.956Z,9.12
2023-04-03T15:33:29.294Z,9.08
2023-04-03T15:36:06.464Z,9.04
2023-04-03T15:38:34.571Z,8.99
2023-04-03T15:41:01.377Z,8.96
2023-04-03T15:43:28.208Z,8.92
2023-04-03T15:45:58.137Z,8.89
2023-04-03T15:48:25.291Z,8.83
2023-04-03T15:50:52.631Z,8.80
2023-04-03T15:53:19.752Z,8.79
2023-04-03T15:55:46.810Z,8.76
2023-04-03T15:58:13.602Z,8.72
2023-04-03T16:00:52.850Z,8.68
2023-04-03T16:03:22.581Z,8.68
2023-04-03T16:05:50.340Z,8.66
2023-04-03T16:08:18.846Z,8.60
2023-04-03T16:10:48.548Z,8.55
2023-04-03T16:13:16.229Z,8.49
2023-04-03T16:15:43.284Z,8.49
2023-04-03T16:18:11.203Z,8.46
2023-04-03T16:20:38.409Z,8.46
2023-04-03T16:23:06.181Z,8.44
2023-04-03T16:25:33.153Z,8.41
2023-04-03T16:28:00.439Z,8.38
2023-04-03T16:30:27.571Z,8.36
2023-04-03T16:32:54.770Z,8.35
2023-04-03T16:35:21.556Z,8.30
2023-04-03T16:37:48.825Z,8.27
2023-04-03T16:40:15.621Z,8.25
2023-04-03T16:42:42.623Z,8.24
2023-04-03T16:45:12.912Z,8.25
2023-04-03T16:47:39.785Z,8.25
2023-04-03T16:50:07.350Z,8.23
2023-04-03T16:52:34.401Z,8.17
2023-04-03T16:55:01.427Z,8.12
2023-04-03T16:57:28.395Z,8.11
2023-04-03T16:59:55.683Z,8.07
2023-04-03T17:02:25.810Z,8.04
2023-04-03T17:04:53.989Z,8.00
2023-04-03T17:07:21.428Z,7.97
2023-04-03T17:09:48.843Z,7.94
2023-04-03T17:12:15.864Z,7.97
2023-04-03T17:14:43.555Z,8.01
2023-04-03T17:17:10.707Z,8.04
2023-04-03T17:19:38.973Z,8.04
2023-04-03T17:22:05.837Z,7.97
2023-04-03T17:24:35.047Z,7.92
2023-04-03T17:27:01.769Z,7.90
2023-04-03T17:29:28.786Z,7.91
2023-04-03T17:31:55.945Z,7.87
2023-04-03T17:34:25.078Z,7.86
2023-04-03T17:36:51.917Z,7.84
2023-04-03T17:39:18.885Z,7.82
2023-04-03T17:41:49.681Z,7.78
2023-04-03T17:44:16.439Z,7.74
2023-04-03T17:46:43.574Z,7.72
2023-04-03T17:49:14.813Z,7.73
2023-04-03T17:51:42.441Z,7.73
2023-04-03T17:54:09.974Z,7.72
2023-04-03T17:56:36.877Z,7.74
2023-04-03T17:59:03.620Z,7.77
2023-04-03T18:01:33.794Z,7.76
2023-04-03T18:04:03.773Z,7.71
2023-04-03T18:06:52.235Z,7.65
2023-04-03T18:09:28.811Z,7.60
2023-04-03T18:11:56.526Z,7.56
2023-04-03T18:14:26.937Z,7.56
2023-04-03T18:16:54.077Z,7.57
2023-04-03T18:19:23.432Z,7.63
2023-04-03T18:21:57.666Z,7.67
2023-04-03T18:24:26.224Z,7.69
2023-04-03T18:27:03.291Z,7.71
2023-04-03T18:29:32.726Z,7.70
2023-04-03T18:32:04.686Z,7.71
2023-04-03T18:34:32.821Z,7.67
2023-04-03T18:37:00.262Z,7.65
2023-04-03T18:39:30.519Z,7.67
2023-04-03T18:42:05.186Z,7.64
2023-04-03T18:44:33.457Z,7.63
2023-04-03T18:47:00.718Z,7.62
2023-04-03T18:49:34.437Z,7.62
2023-04-03T18:52:01.446Z,7.59
2023-04-03T18:54:28.268Z,7.55
2023-04-03T18:56:55.090Z,7.55
2023-04-03T18:59:21.993Z,7.53
2023-04-03T19:01:49.040Z,7.52
2023-04-03T19:04:16.157Z,7.50
2023-04-03T19:06:43.146Z,7.48
2023-04-03T19:09:10.502Z,7.47
2023-04-03T19:11:37.336Z,7.46
2023-04-03T19:14:15.286Z,7.44
2023-04-03T19:16:44.956Z,7.40
2023-04-03T19:19:12.273Z,7.39
2023-04-03T19:21:41.653Z,7.35
2023-04-03T19:24:10.560Z,7.35
2023-04-03T19:26:37.733Z,7.33
2023-04-03T19:29:04.734Z,7.36
2023-04-03T19:31:33.955Z,7.40
2023-04-03T19:34:02.676Z,7.39
2023-04-03T19:36:30.572Z,7.38
2023-04-03T19:38:57.674Z,7.38
2023-04-03T19:41:27.479Z,7.37
2023-04-03T19:43:56.145Z,7.35
2023-04-03T19:46:25.245Z,7.30
2023-04-03T19:48:52.325Z,7.27
2023-04-03T19:51:19.662Z,7.25
2023-04-03T19:53:47.627Z,7.24
2023-04-03T19:56:17.832Z,7.23
2023-04-03T19:58:45.025Z,7.22
2023-04-03T20:01:11.846Z,7.20
2023-04-03T20:03:39.302Z,7.19
2023-04-03T20:06:06.156Z,7.16
2023-04-03T20:08:32.979Z,7.15
2023-04-03T20:10:59.926Z,7.15
2023-04-03T20:13:26.718Z,7.16
2023-04-03T20:15:53.747Z,7.17
2023-04-03T20:18:21.386Z,7.17
2023-04-03T20:20:59.967Z,7.17
2023-04-03T20:23:27.401Z,7.15
2023-04-03T20:26:08.680Z,7.13
2023-04-03T20:28:38.296Z,7.12
2023-04-03T20:31:05.712Z,7.10
2023-04-03T20:33:32.481Z,7.08
2023-04-03T20:36:02.624Z,7.07
2023-04-03T20:38:32.292Z,7.04
2023-04-03T20:41:00.511Z,7.00
2023-04-03T20:43:28.382Z,6.99
2023-04-03T20:45:55.769Z,6.98
2023-04-03T20:48:22.830Z,6.97
2023-04-03T20:50:49.813Z,6.97
2023-04-03T20:53:19.104Z,6.98
2023-04-03T20:56:16.151Z,6.91
2023-04-03T20:58:43.956Z,6.88
2023-04-03T21:01:21.758Z,6.86
2023-04-03T21:03:50.036Z,6.82
2023-04-03T21:06:55.645Z,6.78
2023-04-03T21:10:00.016Z,6.79
2023-04-03T21:13:03.986Z,6.76
2023-04-03T21:16:00.233Z,6.70
2023-04-03T21:18:56.723Z,6.68
2023-04-03T21:21:26.362Z,6.67
2023-04-03T21:23:54.760Z,6.67
2023-04-03T21:26:22.695Z,6.66
2023-04-03T21:28:53.162Z,6.65
2023-04-03T21:31:23.365Z,6.63
2023-04-03T21:33:51.125Z,6.59
2023-04-03T21:36:18.098Z,6.58
2023-04-03T21:38:48.382Z,6.54
2023-04-03T21:41:15.639Z,6.52
2023-04-03T21:43:42.332Z,6.50
2023-04-03T21:46:09.299Z,6.49
2023-04-03T21:48:36.379Z,6.47
2023-04-03T21:51:06.962Z,6.45
2023-04-03T21:53:34.664Z,6.43
2023-04-03T21:56:02.704Z,6.43
2023-04-03T21:58:32.862Z,6.38
2023-04-03T22:01:14.059Z,6.36
2023-04-03T22:03:42.167Z,6.33
2023-04-03T22:06:10.408Z,6.29
2023-04-03T22:08:37.450Z,6.28
2023-04-03T22:11:06.685Z,6.27
2023-04-03T22:13:33.987Z,6.24
2023-04-03T22:16:01.873Z,6.22
2023-04-03T22:18:32.599Z,6.24
2023-04-03T22:20:59.675Z,6.22
2023-04-03T22:23:27.861Z,6.22
2023-04-03T22:26:21.888Z,6.25
2023-04-03T22:28:48.746Z,6.23
2023-04-03T22:31:16.646Z,6.24
2023-04-03T22:33:45.075Z,6.22
2023-04-03T22:36:13.302Z,6.24
2023-04-03T22:38:43.537Z,6.25
2023-04-03T22:41:10.801Z,6.26
2023-04-03T22:43:38.225Z,6.27
2023-04-03T22:46:09.387Z,6.24
2023-04-03T22:48:37.748Z,6.21
2023-04-03T22:51:09.008Z,6.18
2023-04-03T22:53:36.739Z,6.22
2023-04-03T22:56:08.614Z,6.24
2023-04-03T22:58:35.620Z,6.22
2023-04-03T23:01:12.712Z,6.24
2023-04-03T23:03:41.764Z,6.24
2023-04-03T23:06:09.424Z,6.16
2023-04-03T23:08:41.014Z,6.10
2023-04-03T23:11:09.697Z,6.09
2023-04-03T23:13:37.202Z,6.07
2023-04-03T23:16:04.762Z,6.07
2023-04-03T23:18:32.755Z,6.05
2023-04-03T23:21:01.487Z,6.03
2023-04-03T23:23:28.611Z,6.04
2023-04-03T23:25:55.934Z,6.05
2023-04-03T23:28:23.149Z,6.03
2023-04-03T23:30:51.172Z,6.01
2023-04-03T23:33:17.954Z,5.99
2023-04-03T23:35:47.998Z,5.96
2023-04-03T23:38:15.715Z,5.94
2023-04-03T23:40:43.362Z,5.91
2023-04-03T23:43:11.070Z,5.90
2023-04-03T23:45:38.312Z,5.90
2023-04-03T23:48:05.149Z,5.87
2023-04-03T23:51:27.853Z,5.86
2023-04-03T23:53:57.220Z,5.84
2023-04-03T23:56:24.402Z,5.86
2023-04-03T23:58:51.235Z,5.87
